sensor_id;sensor_type;location;lat;lon;timestamp;temperature;humidity
58993;DHT22;44782;0.000;0.000;2022-11-09T00:00:15;17.40;70.10
58993;DHT22;44782;0.000;0.000;2022-11-09T00:02:31;17.40;69.30
58993;DHT22;44782;0.000;0.000;2022-11-09T00:04:47;17.40;69.30
58993;DHT22;44782;0.000;0.000;2022-11-09T00:07:02;17.40;69.30
58993;DHT22;44782;0.000;0.000;2022-11-09T00:09:19;17.40;69.20
58993;DHT22;44782;0.000;0.000;2022-11-09T00:11:36;17.40;69.10
58993;DHT22;44782;0.000;0.000;2022-11-09T00:13:52;17.40;69.10
58993;DHT22;44782;0.000;0.000;2022-11-09T00:16:09;17.40;69.10
58993;DHT22;44782;0.000;0.000;2022-11-09T00:18:25;17.40;69.10
58993;DHT22;44782;0.000;0.000;2022-11-09T00:20:41;17.30;69.00
58993;DHT22;44782;0.000;0.000;2022-11-09T00:22:57;17.30;69.00
58993;DHT22;44782;0.000;0.000;2022-11-09T00:25:13;17.30;68.90
58993;DHT22;44782;0.000;0.000;2022-11-09T00:27:29;17.40;69.00
58993;DHT22;44782;0.000;0.000;2022-11-09T00:29:44;17.30;68.90
58993;DHT22;44782;0.000;0.000;2022-11-09T00:32:00;17.30;68.90
58993;DHT22;44782;0.000;0.000;2022-11-09T00:34:15;17.30;68.90
58993;DHT22;44782;0.000;0.000;2022-11-09T00:36:31;17.30;68.80
58993;DHT22;44782;0.000;0.000;2022-11-09T00:50:23;17.30;68.60
58993;DHT22;44782;0.000;0.000;2022-11-09T00:52:38;17.20;68.90
58993;DHT22;44782;0.000;0.000;2022-11-09T00:54:54;17.20;68.90
58993;DHT22;44782;0.000;0.000;2022-11-09T00:57:11;17.20;68.80
58993;DHT22;44782;0.000;0.000;2022-11-09T00:59:27;17.20;68.70
58993;DHT22;44782;0.000;0.000;2022-11-09T01:01:42;17.20;68.70
58993;DHT22;44782;0.000;0.000;2022-11-09T01:03:58;17.20;68.80
58993;DHT22;44782;0.000;0.000;2022-11-09T01:06:16;17.20;68.70
58993;DHT22;44782;0.000;0.000;2022-11-09T01:08:33;17.20;68.70
58993;DHT22;44782;0.000;0.000;2022-11-09T01:10:49;17.20;68.70
58993;DHT22;44782;0.000;0.000;2022-11-09T01:13:04;17.20;68.70
58993;DHT22;44782;0.000;0.000;2022-11-09T01:15:20;17.20;68.70
58993;DHT22;44782;0.000;0.000;2022-11-09T01:17:35;17.20;68.70
58993;DHT22;44782;0.000;0.000;2022-11-09T01:19:51;17.20;68.70
58993;DHT22;44782;0.000;0.000;2022-11-09T01:22:07;17.20;68.70
58993;DHT22;44782;0.000;0.000;2022-11-09T01:24:22;17.20;68.70
58993;DHT22;44782;0.000;0.000;2022-11-09T01:26:38;17.10;68.60
58993;DHT22;44782;0.000;0.000;2022-11-09T01:28:53;17.10;68.60
58993;DHT22;44782;0.000;0.000;2022-11-09T01:31:15;17.20;68.70
58993;DHT22;44782;0.000;0.000;2022-11-09T01:33:32;17.20;68.60
58993;DHT22;44782;0.000;0.000;2022-11-09T01:35:47;17.10;68.60
58993;DHT22;44782;0.000;0.000;2022-11-09T01:38:05;17.10;68.60
58993;DHT22;44782;0.000;0.000;2022-11-09T01:40:20;17.10;68.50
58993;DHT22;44782;0.000;0.000;2022-11-09T01:42:36;17.10;68.50
58993;DHT22;44782;0.000;0.000;2022-11-09T01:48:58;17.10;68.20
58993;DHT22;44782;0.000;0.000;2022-11-09T01:50:58;17.10;68.30
58993;DHT22;44782;0.000;0.000;2022-11-09T01:53:33;17.10;68.60
58993;DHT22;44782;0.000;0.000;2022-11-09T01:56:00;17.10;68.60
58993;DHT22;44782;0.000;0.000;2022-11-09T01:58:26;17.10;68.60
58993;DHT22;44782;0.000;0.000;2022-11-09T02:00:48;17.10;68.50
58993;DHT22;44782;0.000;0.000;2022-11-09T02:03:25;17.10;68.40
58993;DHT22;44782;0.000;0.000;2022-11-09T02:05:42;17.00;68.40
58993;DHT22;44782;0.000;0.000;2022-11-09T02:08:00;17.00;68.40
58993;DHT22;44782;0.000;0.000;2022-11-09T02:10:30;17.00;68.40
58993;DHT22;44782;0.000;0.000;2022-11-09T02:12:47;17.10;68.30
58993;DHT22;44782;0.000;0.000;2022-11-09T02:15:06;17.00;69.20
58993;DHT22;44782;0.000;0.000;2022-11-09T02:17:23;17.00;68.50
58993;DHT22;44782;0.000;0.000;2022-11-09T02:19:39;17.00;68.40
58993;DHT22;44782;0.000;0.000;2022-11-09T02:21:54;17.10;68.50
58993;DHT22;44782;0.000;0.000;2022-11-09T02:24:11;17.00;68.40
58993;DHT22;44782;0.000;0.000;2022-11-09T02:26:33;17.10;68.40
58993;DHT22;44782;0.000;0.000;2022-11-09T02:28:49;17.10;68.40
58993;DHT22;44782;0.000;0.000;2022-11-09T02:31:08;17.00;68.40
58993;DHT22;44782;0.000;0.000;2022-11-09T02:33:25;17.00;68.40
58993;DHT22;44782;0.000;0.000;2022-11-09T02:35:40;17.00;68.40
58993;DHT22;44782;0.000;0.000;2022-11-09T02:37:56;17.00;68.40
58993;DHT22;44782;0.000;0.000;2022-11-09T02:40:21;17.00;68.40
58993;DHT22;44782;0.000;0.000;2022-11-09T02:42:38;17.00;68.30
58993;DHT22;44782;0.000;0.000;2022-11-09T02:44:58;17.00;68.40
58993;DHT22;44782;0.000;0.000;2022-11-09T02:47:14;17.00;68.30
58993;DHT22;44782;0.000;0.000;2022-11-09T02:49:30;17.00;68.40
58993;DHT22;44782;0.000;0.000;2022-11-09T02:51:45;17.00;68.40
58993;DHT22;44782;0.000;0.000;2022-11-09T02:54:01;17.00;68.40
58993;DHT22;44782;0.000;0.000;2022-11-09T02:56:17;17.00;68.30
58993;DHT22;44782;0.000;0.000;2022-11-09T02:58:32;17.00;68.40
58993;DHT22;44782;0.000;0.000;2022-11-09T03:00:48;17.00;68.40
58993;DHT22;44782;0.000;0.000;2022-11-09T03:03:04;16.90;68.30
58993;DHT22;44782;0.000;0.000;2022-11-09T03:05:20;16.90;68.30
58993;DHT22;44782;0.000;0.000;2022-11-09T03:07:35;17.00;68.40
58993;DHT22;44782;0.000;0.000;2022-11-09T03:09:51;16.90;68.30
58993;DHT22;44782;0.000;0.000;2022-11-09T03:12:08;16.90;68.30
58993;DHT22;44782;0.000;0.000;2022-11-09T03:14:42;16.90;68.30
58993;DHT22;44782;0.000;0.000;2022-11-09T03:16:58;16.90;68.30
58993;DHT22;44782;0.000;0.000;2022-11-09T03:19:13;16.90;68.30
58993;DHT22;44782;0.000;0.000;2022-11-09T03:21:29;16.90;68.30
58993;DHT22;44782;0.000;0.000;2022-11-09T03:23:45;16.90;68.30
58993;DHT22;44782;0.000;0.000;2022-11-09T03:26:00;16.90;68.30
58993;DHT22;44782;0.000;0.000;2022-11-09T03:28:16;16.90;68.30
58993;DHT22;44782;0.000;0.000;2022-11-09T03:30:33;16.90;68.30
58993;DHT22;44782;0.000;0.000;2022-11-09T03:32:48;16.90;68.20
58993;DHT22;44782;0.000;0.000;2022-11-09T03:35:04;16.90;68.20
58993;DHT22;44782;0.000;0.000;2022-11-09T03:37:20;16.90;68.20
58993;DHT22;44782;0.000;0.000;2022-11-09T03:39:36;16.90;68.20
58993;DHT22;44782;0.000;0.000;2022-11-09T03:41:51;16.90;68.20
58993;DHT22;44782;0.000;0.000;2022-11-09T03:44:07;16.90;68.30
58993;DHT22;44782;0.000;0.000;2022-11-09T03:46:23;16.90;68.20
58993;DHT22;44782;0.000;0.000;2022-11-09T03:48:38;16.90;68.20
58993;DHT22;44782;0.000;0.000;2022-11-09T03:50:54;16.90;68.20
58993;DHT22;44782;0.000;0.000;2022-11-09T03:53:10;16.90;68.20
58993;DHT22;44782;0.000;0.000;2022-11-09T03:55:27;16.90;68.90
58993;DHT22;44782;0.000;0.000;2022-11-09T03:57:44;16.90;68.20
58993;DHT22;44782;0.000;0.000;2022-11-09T04:00:00;16.90;68.20
58993;DHT22;44782;0.000;0.000;2022-11-09T04:02:16;16.90;68.20
58993;DHT22;44782;0.000;0.000;2022-11-09T04:04:31;16.80;68.10
58993;DHT22;44782;0.000;0.000;2022-11-09T04:06:47;16.90;68.10
58993;DHT22;44782;0.000;0.000;2022-11-09T04:09:02;16.80;68.10
58993;DHT22;44782;0.000;0.000;2022-11-09T04:11:18;16.80;68.80
58993;DHT22;44782;0.000;0.000;2022-11-09T04:13:34;16.80;68.10
58993;DHT22;44782;0.000;0.000;2022-11-09T04:15:49;16.90;68.20
58993;DHT22;44782;0.000;0.000;2022-11-09T04:18:05;16.80;68.10
58993;DHT22;44782;0.000;0.000;2022-11-09T04:20:21;16.90;68.20
58993;DHT22;44782;0.000;0.000;2022-11-09T04:22:36;16.90;68.10
58993;DHT22;44782;0.000;0.000;2022-11-09T04:24:52;16.80;68.10
58993;DHT22;44782;0.000;0.000;2022-11-09T04:27:08;16.80;68.10
58993;DHT22;44782;0.000;0.000;2022-11-09T04:29:23;16.80;68.10
58993;DHT22;44782;0.000;0.000;2022-11-09T04:31:39;16.80;68.10
58993;DHT22;44782;0.000;0.000;2022-11-09T04:33:54;16.80;68.10
58993;DHT22;44782;0.000;0.000;2022-11-09T04:36:10;16.80;68.00
58993;DHT22;44782;0.000;0.000;2022-11-09T04:38:26;16.80;68.00
58993;DHT22;44782;0.000;0.000;2022-11-09T04:40:41;16.80;68.10
58993;DHT22;44782;0.000;0.000;2022-11-09T04:43:01;16.80;68.00
58993;DHT22;44782;0.000;0.000;2022-11-09T04:45:18;16.80;68.00
58993;DHT22;44782;0.000;0.000;2022-11-09T04:47:34;16.80;68.70
58993;DHT22;44782;0.000;0.000;2022-11-09T04:49:50;16.80;68.00
58993;DHT22;44782;0.000;0.000;2022-11-09T04:52:05;16.80;68.00
58993;DHT22;44782;0.000;0.000;2022-11-09T04:54:21;16.80;68.00
58993;DHT22;44782;0.000;0.000;2022-11-09T04:56:36;16.80;68.00
58993;DHT22;44782;0.000;0.000;2022-11-09T04:58:52;16.80;67.90
58993;DHT22;44782;0.000;0.000;2022-11-09T05:01:10;16.80;67.90
58993;DHT22;44782;0.000;0.000;2022-11-09T05:03:26;16.80;67.90
58993;DHT22;44782;0.000;0.000;2022-11-09T05:05:42;16.80;67.90
58993;DHT22;44782;0.000;0.000;2022-11-09T05:07:58;16.80;67.90
58993;DHT22;44782;0.000;0.000;2022-11-09T05:10:14;16.80;68.30
58993;DHT22;44782;0.000;0.000;2022-11-09T05:12:29;16.80;68.70
58993;DHT22;44782;0.000;0.000;2022-11-09T05:14:45;16.80;67.90
58993;DHT22;44782;0.000;0.000;2022-11-09T05:17:00;16.80;67.90
58993;DHT22;44782;0.000;0.000;2022-11-09T05:19:16;16.80;67.90
58993;DHT22;44782;0.000;0.000;2022-11-09T05:21:32;16.80;67.90
58993;DHT22;44782;0.000;0.000;2022-11-09T05:23:47;16.80;67.90
58993;DHT22;44782;0.000;0.000;2022-11-09T05:26:15;16.80;67.90
58993;DHT22;44782;0.000;0.000;2022-11-09T05:28:31;16.70;68.00
58993;DHT22;44782;0.000;0.000;2022-11-09T05:30:46;16.80;67.90
58993;DHT22;44782;0.000;0.000;2022-11-09T05:33:02;16.80;67.90
58993;DHT22;44782;0.000;0.000;2022-11-09T05:35:18;16.80;67.90
58993;DHT22;44782;0.000;0.000;2022-11-09T05:37:34;16.80;67.90
58993;DHT22;44782;0.000;0.000;2022-11-09T05:39:52;16.80;67.90
58993;DHT22;44782;0.000;0.000;2022-11-09T05:42:07;16.70;67.80
58993;DHT22;44782;0.000;0.000;2022-11-09T05:44:24;16.80;67.90
58993;DHT22;44782;0.000;0.000;2022-11-09T05:46:40;16.70;67.80
58993;DHT22;44782;0.000;0.000;2022-11-09T05:48:55;16.70;67.80
58993;DHT22;44782;0.000;0.000;2022-11-09T05:51:13;16.70;67.80
58993;DHT22;44782;0.000;0.000;2022-11-09T05:53:30;16.70;67.80
58993;DHT22;44782;0.000;0.000;2022-11-09T05:55:46;16.70;67.80
58993;DHT22;44782;0.000;0.000;2022-11-09T05:58:01;16.70;67.80
58993;DHT22;44782;0.000;0.000;2022-11-09T06:00:17;16.70;67.80
58993;DHT22;44782;0.000;0.000;2022-11-09T06:02:33;16.70;67.80
58993;DHT22;44782;0.000;0.000;2022-11-09T06:04:48;16.70;67.80
58993;DHT22;44782;0.000;0.000;2022-11-09T06:07:04;16.70;67.90
58993;DHT22;44782;0.000;0.000;2022-11-09T06:09:19;16.70;67.90
58993;DHT22;44782;0.000;0.000;2022-11-09T06:11:35;16.70;67.90
58993;DHT22;44782;0.000;0.000;2022-11-09T06:13:51;16.70;67.90
58993;DHT22;44782;0.000;0.000;2022-11-09T06:16:08;16.70;67.90
58993;DHT22;44782;0.000;0.000;2022-11-09T06:18:26;16.70;67.80
58993;DHT22;44782;0.000;0.000;2022-11-09T06:20:42;16.70;67.80
58993;DHT22;44782;0.000;0.000;2022-11-09T06:22:59;16.70;67.80
58993;DHT22;44782;0.000;0.000;2022-11-09T06:25:15;16.70;67.80
58993;DHT22;44782;0.000;0.000;2022-11-09T06:27:31;16.70;67.80
58993;DHT22;44782;0.000;0.000;2022-11-09T06:29:46;16.70;67.80
58993;DHT22;44782;0.000;0.000;2022-11-09T06:32:02;16.70;67.80
58993;DHT22;44782;0.000;0.000;2022-11-09T06:34:18;16.70;67.80
58993;DHT22;44782;0.000;0.000;2022-11-09T06:36:34;16.70;67.80
58993;DHT22;44782;0.000;0.000;2022-11-09T06:38:50;16.70;67.80
58993;DHT22;44782;0.000;0.000;2022-11-09T06:41:06;16.70;67.70
58993;DHT22;44782;0.000;0.000;2022-11-09T06:43:22;16.70;67.80
58993;DHT22;44782;0.000;0.000;2022-11-09T06:45:38;16.70;67.80
58993;DHT22;44782;0.000;0.000;2022-11-09T06:47:55;16.70;67.80
58993;DHT22;44782;0.000;0.000;2022-11-09T06:50:11;16.70;67.80
58993;DHT22;44782;0.000;0.000;2022-11-09T06:52:27;16.60;67.70
58993;DHT22;44782;0.000;0.000;2022-11-09T06:54:42;16.70;67.80
58993;DHT22;44782;0.000;0.000;2022-11-09T06:56:58;16.70;67.90
58993;DHT22;44782;0.000;0.000;2022-11-09T06:59:13;16.60;67.80
58993;DHT22;44782;0.000;0.000;2022-11-09T07:01:29;16.70;67.80
58993;DHT22;44782;0.000;0.000;2022-11-09T07:03:45;16.60;67.80
58993;DHT22;44782;0.000;0.000;2022-11-09T07:06:04;16.60;67.80
58993;DHT22;44782;0.000;0.000;2022-11-09T07:08:20;16.60;67.80
58993;DHT22;44782;0.000;0.000;2022-11-09T07:10:36;16.60;67.80
58993;DHT22;44782;0.000;0.000;2022-11-09T07:12:51;16.60;67.90
58993;DHT22;44782;0.000;0.000;2022-11-09T07:15:07;16.60;67.80
58993;DHT22;44782;0.000;0.000;2022-11-09T07:17:23;16.60;67.90
58993;DHT22;44782;0.000;0.000;2022-11-09T07:19:39;16.60;67.90
58993;DHT22;44782;0.000;0.000;2022-11-09T07:21:55;16.60;67.90
58993;DHT22;44782;0.000;0.000;2022-11-09T07:24:11;16.60;67.90
58993;DHT22;44782;0.000;0.000;2022-11-09T07:26:26;16.60;67.90
58993;DHT22;44782;0.000;0.000;2022-11-09T07:28:42;16.60;67.90
58993;DHT22;44782;0.000;0.000;2022-11-09T07:30:58;16.60;67.90
58993;DHT22;44782;0.000;0.000;2022-11-09T07:33:15;16.60;67.90
58993;DHT22;44782;0.000;0.000;2022-11-09T07:35:34;16.60;68.00
58993;DHT22;44782;0.000;0.000;2022-11-09T07:37:50;16.60;68.00
58993;DHT22;44782;0.000;0.000;2022-11-09T07:40:06;16.60;68.00
58993;DHT22;44782;0.000;0.000;2022-11-09T07:42:22;16.60;68.00
58993;DHT22;44782;0.000;0.000;2022-11-09T07:44:38;16.60;68.00
58993;DHT22;44782;0.000;0.000;2022-11-09T07:46:53;16.60;68.00
58993;DHT22;44782;0.000;0.000;2022-11-09T07:49:09;16.60;68.00
58993;DHT22;44782;0.000;0.000;2022-11-09T07:51:25;16.60;68.00
58993;DHT22;44782;0.000;0.000;2022-11-09T07:53:40;16.60;68.00
58993;DHT22;44782;0.000;0.000;2022-11-09T07:55:57;16.60;68.10
58993;DHT22;44782;0.000;0.000;2022-11-09T07:58:14;16.60;68.10
58993;DHT22;44782;0.000;0.000;2022-11-09T08:00:31;16.60;68.10
58993;DHT22;44782;0.000;0.000;2022-11-09T08:02:48;16.60;68.20
58993;DHT22;44782;0.000;0.000;2022-11-09T08:05:04;16.60;68.30
58993;DHT22;44782;0.000;0.000;2022-11-09T08:07:20;16.60;68.30
58993;DHT22;44782;0.000;0.000;2022-11-09T08:09:37;16.60;68.40
58993;DHT22;44782;0.000;0.000;2022-11-09T08:11:53;16.60;68.40
58993;DHT22;44782;0.000;0.000;2022-11-09T08:14:09;16.60;68.50
58993;DHT22;44782;0.000;0.000;2022-11-09T08:16:25;16.60;68.40
58993;DHT22;44782;0.000;0.000;2022-11-09T08:18:40;16.60;68.40
58993;DHT22;44782;0.000;0.000;2022-11-09T08:20:56;16.60;68.60
58993;DHT22;44782;0.000;0.000;2022-11-09T08:23:13;16.60;68.60
58993;DHT22;44782;0.000;0.000;2022-11-09T08:25:29;16.60;68.60
58993;DHT22;44782;0.000;0.000;2022-11-09T08:27:45;16.60;68.60
58993;DHT22;44782;0.000;0.000;2022-11-09T08:30:00;16.60;68.70
58993;DHT22;44782;0.000;0.000;2022-11-09T08:32:16;16.60;68.70
58993;DHT22;44782;0.000;0.000;2022-11-09T08:34:31;16.60;68.80
58993;DHT22;44782;0.000;0.000;2022-11-09T08:36:47;16.60;68.80
58993;DHT22;44782;0.000;0.000;2022-11-09T08:39:03;16.60;69.10
58993;DHT22;44782;0.000;0.000;2022-11-09T08:41:18;16.60;69.10
58993;DHT22;44782;0.000;0.000;2022-11-09T08:43:34;16.60;69.10
58993;DHT22;44782;0.000;0.000;2022-11-09T08:45:50;16.60;69.10
58993;DHT22;44782;0.000;0.000;2022-11-09T08:48:07;16.60;69.10
58993;DHT22;44782;0.000;0.000;2022-11-09T08:50:22;16.60;69.20
58993;DHT22;44782;0.000;0.000;2022-11-09T08:52:39;16.60;69.20
58993;DHT22;44782;0.000;0.000;2022-11-09T08:54:55;16.60;70.00
58993;DHT22;44782;0.000;0.000;2022-11-09T08:57:11;16.60;69.30
58993;DHT22;44782;0.000;0.000;2022-11-09T08:59:26;16.60;69.30
58993;DHT22;44782;0.000;0.000;2022-11-09T09:01:42;16.60;69.40
58993;DHT22;44782;0.000;0.000;2022-11-09T09:03:58;16.60;69.40
58993;DHT22;44782;0.000;0.000;2022-11-09T09:06:13;16.60;69.40
58993;DHT22;44782;0.000;0.000;2022-11-09T09:08:29;16.60;69.50
58993;DHT22;44782;0.000;0.000;2022-11-09T09:10:44;16.70;69.50
58993;DHT22;44782;0.000;0.000;2022-11-09T09:13:01;16.70;70.30
58993;DHT22;44782;0.000;0.000;2022-11-09T09:15:17;16.70;69.60
58993;DHT22;44782;0.000;0.000;2022-11-09T09:17:33;16.60;69.40
58993;DHT22;44782;0.000;0.000;2022-11-09T09:19:49;16.60;69.50
58993;DHT22;44782;0.000;0.000;2022-11-09T09:22:05;16.60;69.40
58993;DHT22;44782;0.000;0.000;2022-11-09T09:24:22;16.60;69.50
58993;DHT22;44782;0.000;0.000;2022-11-09T09:26:38;16.80;69.60
58993;DHT22;44782;0.000;0.000;2022-11-09T09:28:53;16.70;69.60
58993;DHT22;44782;0.000;0.000;2022-11-09T09:31:09;16.60;69.50
58993;DHT22;44782;0.000;0.000;2022-11-09T09:33:25;16.60;69.50
58993;DHT22;44782;0.000;0.000;2022-11-09T09:35:41;16.70;69.50
58993;DHT22;44782;0.000;0.000;2022-11-09T09:37:57;16.70;69.60
58993;DHT22;44782;0.000;0.000;2022-11-09T09:43:00;16.70;69.60
58993;DHT22;44782;0.000;0.000;2022-11-09T09:45:28;16.70;69.60
58993;DHT22;44782;0.000;0.000;2022-11-09T09:48:29;16.70;69.70
58993;DHT22;44782;0.000;0.000;2022-11-09T09:51:00;16.60;69.50
58993;DHT22;44782;0.000;0.000;2022-11-09T09:56:23;16.60;69.60
58993;DHT22;44782;0.000;0.000;2022-11-09T09:58:46;16.60;69.70
58993;DHT22;44782;0.000;0.000;2022-11-09T10:01:14;16.60;69.60
58993;DHT22;44782;0.000;0.000;2022-11-09T10:03:30;16.60;69.60
58993;DHT22;44782;0.000;0.000;2022-11-09T10:10:59;16.70;69.50
58993;DHT22;44782;0.000;0.000;2022-11-09T10:22:21;16.60;69.50
58993;DHT22;44782;0.000;0.000;2022-11-09T10:24:38;16.60;69.50
58993;DHT22;44782;0.000;0.000;2022-11-09T10:26:56;16.60;69.40
58993;DHT22;44782;0.000;0.000;2022-11-09T10:29:22;16.60;69.40
58993;DHT22;44782;0.000;0.000;2022-11-09T10:31:40;16.60;69.40
58993;DHT22;44782;0.000;0.000;2022-11-09T10:34:01;16.60;69.40
58993;DHT22;44782;0.000;0.000;2022-11-09T10:36:25;16.60;69.30
58993;DHT22;44782;0.000;0.000;2022-11-09T10:38:44;16.70;69.40
58993;DHT22;44782;0.000;0.000;2022-11-09T10:41:16;16.60;69.30
58993;DHT22;44782;0.000;0.000;2022-11-09T10:43:36;16.70;69.40
58993;DHT22;44782;0.000;0.000;2022-11-09T10:46:06;16.60;69.40
58993;DHT22;44782;0.000;0.000;2022-11-09T10:48:36;16.60;69.20
58993;DHT22;44782;0.000;0.000;2022-11-09T10:50:52;16.70;69.30
58993;DHT22;44782;0.000;0.000;2022-11-09T10:53:21;16.60;69.30
58993;DHT22;44782;0.000;0.000;2022-11-09T10:55:37;16.60;69.20
58993;DHT22;44782;0.000;0.000;2022-11-09T11:00:19;16.70;69.20
58993;DHT22;44782;0.000;0.000;2022-11-09T11:02:41;16.60;69.20
58993;DHT22;44782;0.000;0.000;2022-11-09T11:12:30;16.60;69.00
58993;DHT22;44782;0.000;0.000;2022-11-09T11:14:45;16.70;69.20
58993;DHT22;44782;0.000;0.000;2022-11-09T11:17:01;16.70;69.10
58993;DHT22;44782;0.000;0.000;2022-11-09T11:19:39;16.60;69.10
58993;DHT22;44782;0.000;0.000;2022-11-09T11:24:26;16.60;69.20
58993;DHT22;44782;0.000;0.000;2022-11-09T11:27:27;16.60;69.30
58993;DHT22;44782;0.000;0.000;2022-11-09T11:31:47;16.70;69.40
58993;DHT22;44782;0.000;0.000;2022-11-09T11:34:07;16.70;69.60
58993;DHT22;44782;0.000;0.000;2022-11-09T11:36:40;16.70;69.80
58993;DHT22;44782;0.000;0.000;2022-11-09T11:39:23;16.70;70.00
58993;DHT22;44782;0.000;0.000;2022-11-09T11:47:24;16.70;69.80
58993;DHT22;44782;0.000;0.000;2022-11-09T12:00:13;16.80;69.70
58993;DHT22;44782;0.000;0.000;2022-11-09T12:06:04;16.80;69.60
58993;DHT22;44782;0.000;0.000;2022-11-09T12:10:51;16.90;69.90
58993;DHT22;44782;0.000;0.000;2022-11-09T12:29:29;17.00;69.30
58993;DHT22;44782;0.000;0.000;2022-11-09T12:34:25;17.00;69.50
58993;DHT22;44782;0.000;0.000;2022-11-09T12:36:56;17.00;69.30
58993;DHT22;44782;0.000;0.000;2022-11-09T12:41:38;17.00;69.30
58993;DHT22;44782;0.000;0.000;2022-11-09T12:44:01;17.00;69.30
58993;DHT22;44782;0.000;0.000;2022-11-09T12:46:21;17.00;69.20
58993;DHT22;44782;0.000;0.000;2022-11-09T12:48:39;17.00;69.20
58993;DHT22;44782;0.000;0.000;2022-11-09T12:50:56;17.00;69.10
58993;DHT22;44782;0.000;0.000;2022-11-09T12:53:13;17.10;69.00
58993;DHT22;44782;0.000;0.000;2022-11-09T12:55:49;17.10;68.90
58993;DHT22;44782;0.000;0.000;2022-11-09T12:58:06;17.10;68.50
58993;DHT22;44782;0.000;0.000;2022-11-09T13:02:55;17.10;68.40
58993;DHT22;44782;0.000;0.000;2022-11-09T13:07:48;17.10;68.40
58993;DHT22;44782;0.000;0.000;2022-11-09T13:10:05;17.10;68.50
58993;DHT22;44782;0.000;0.000;2022-11-09T13:12:38;17.10;68.60
58993;DHT22;44782;0.000;0.000;2022-11-09T13:14:55;17.10;68.60
58993;DHT22;44782;0.000;0.000;2022-11-09T13:19:54;17.10;68.20
58993;DHT22;44782;0.000;0.000;2022-11-09T13:34:50;17.10;68.10
58993;DHT22;44782;0.000;0.000;2022-11-09T13:39:52;17.00;68.10
58993;DHT22;44782;0.000;0.000;2022-11-09T13:42:32;17.00;68.40
58993;DHT22;44782;0.000;0.000;2022-11-09T13:44:48;17.00;68.10
58993;DHT22;44782;0.000;0.000;2022-11-09T13:47:04;17.00;68.40
58993;DHT22;44782;0.000;0.000;2022-11-09T13:49:39;17.00;68.30
58993;DHT22;44782;0.000;0.000;2022-11-09T13:51:55;17.00;68.00
58993;DHT22;44782;0.000;0.000;2022-11-09T13:54:27;17.00;68.30
58993;DHT22;44782;0.000;0.000;2022-11-09T13:56:43;17.00;68.10
58993;DHT22;44782;0.000;0.000;2022-11-09T14:01:59;17.00;67.90
58993;DHT22;44782;0.000;0.000;2022-11-09T14:06:41;17.00;68.20
58993;DHT22;44782;0.000;0.000;2022-11-09T14:08:58;17.00;68.30
58993;DHT22;44782;0.000;0.000;2022-11-09T14:23:40;17.00;68.40
58993;DHT22;44782;0.000;0.000;2022-11-09T14:25:56;17.00;68.60
58993;DHT22;44782;0.000;0.000;2022-11-09T14:28:26;16.90;68.40
58993;DHT22;44782;0.000;0.000;2022-11-09T14:30:43;17.00;68.40
58993;DHT22;44782;0.000;0.000;2022-11-09T14:32:59;17.00;68.50
58993;DHT22;44782;0.000;0.000;2022-11-09T14:35:31;16.90;68.50
58993;DHT22;44782;0.000;0.000;2022-11-09T14:37:48;17.00;68.40
58993;DHT22;44782;0.000;0.000;2022-11-09T14:40:05;17.00;68.60
58993;DHT22;44782;0.000;0.000;2022-11-09T14:42:22;17.00;68.60
58993;DHT22;44782;0.000;0.000;2022-11-09T14:44:42;16.90;68.50
58993;DHT22;44782;0.000;0.000;2022-11-09T14:46:59;16.90;68.40
58993;DHT22;44782;0.000;0.000;2022-11-09T14:49:15;16.90;68.50
58993;DHT22;44782;0.000;0.000;2022-11-09T14:51:34;16.90;68.50
58993;DHT22;44782;0.000;0.000;2022-11-09T14:53:50;16.90;68.50
58993;DHT22;44782;0.000;0.000;2022-11-09T14:56:08;16.90;68.50
58993;DHT22;44782;0.000;0.000;2022-11-09T14:58:26;16.90;68.40
58993;DHT22;44782;0.000;0.000;2022-11-09T15:00:42;16.90;68.40
58993;DHT22;44782;0.000;0.000;2022-11-09T15:02:59;16.90;68.40
58993;DHT22;44782;0.000;0.000;2022-11-09T15:05:38;16.90;68.40
58993;DHT22;44782;0.000;0.000;2022-11-09T15:07:55;16.90;68.40
58993;DHT22;44782;0.000;0.000;2022-11-09T15:10:18;16.90;68.40
58993;DHT22;44782;0.000;0.000;2022-11-09T15:12:35;16.90;68.30
58993;DHT22;44782;0.000;0.000;2022-11-09T15:14:56;16.90;68.40
58993;DHT22;44782;0.000;0.000;2022-11-09T15:19:36;16.90;68.30
58993;DHT22;44782;0.000;0.000;2022-11-09T15:21:52;16.80;68.30
58993;DHT22;44782;0.000;0.000;2022-11-09T15:26:40;16.90;68.30
58993;DHT22;44782;0.000;0.000;2022-11-09T15:28:57;16.90;68.10
58993;DHT22;44782;0.000;0.000;2022-11-09T15:31:14;16.80;68.20
58993;DHT22;44782;0.000;0.000;2022-11-09T15:40:45;16.90;67.90
58993;DHT22;44782;0.000;0.000;2022-11-09T15:43:00;16.80;68.10
58993;DHT22;44782;0.000;0.000;2022-11-09T15:45:18;16.80;68.10
58993;DHT22;44782;0.000;0.000;2022-11-09T15:47:36;16.80;68.10
58993;DHT22;44782;0.000;0.000;2022-11-09T15:49:52;16.80;68.00
58993;DHT22;44782;0.000;0.000;2022-11-09T15:52:09;16.80;68.00
58993;DHT22;44782;0.000;0.000;2022-11-09T15:54:25;16.80;68.00
58993;DHT22;44782;0.000;0.000;2022-11-09T15:56:42;16.80;68.10
58993;DHT22;44782;0.000;0.000;2022-11-09T15:58:57;16.80;67.90
58993;DHT22;44782;0.000;0.000;2022-11-09T16:01:13;16.80;68.00
58993;DHT22;44782;0.000;0.000;2022-11-09T16:03:29;16.80;68.00
58993;DHT22;44782;0.000;0.000;2022-11-09T16:05:45;16.70;67.90
58993;DHT22;44782;0.000;0.000;2022-11-09T16:08:00;16.80;68.00
58993;DHT22;44782;0.000;0.000;2022-11-09T16:10:17;16.80;67.90
58993;DHT22;44782;0.000;0.000;2022-11-09T16:12:36;16.70;67.90
58993;DHT22;44782;0.000;0.000;2022-11-09T16:14:52;16.70;67.90
58993;DHT22;44782;0.000;0.000;2022-11-09T16:17:07;16.70;67.90
58993;DHT22;44782;0.000;0.000;2022-11-09T16:19:23;16.70;67.90
58993;DHT22;44782;0.000;0.000;2022-11-09T16:21:39;16.70;67.90
58993;DHT22;44782;0.000;0.000;2022-11-09T16:23:55;16.70;67.80
58993;DHT22;44782;0.000;0.000;2022-11-09T16:26:13;16.70;67.80
58993;DHT22;44782;0.000;0.000;2022-11-09T16:28:29;16.70;67.80
58993;DHT22;44782;0.000;0.000;2022-11-09T16:30:45;16.70;67.80
58993;DHT22;44782;0.000;0.000;2022-11-09T16:33:00;16.70;67.80
58993;DHT22;44782;0.000;0.000;2022-11-09T16:35:16;16.70;67.80
58993;DHT22;44782;0.000;0.000;2022-11-09T16:37:35;16.70;67.80
58993;DHT22;44782;0.000;0.000;2022-11-09T16:39:51;16.70;67.70
58993;DHT22;44782;0.000;0.000;2022-11-09T16:42:09;16.70;67.80
58993;DHT22;44782;0.000;0.000;2022-11-09T16:44:30;16.70;67.90
58993;DHT22;44782;0.000;0.000;2022-11-09T16:46:48;16.70;67.70
58993;DHT22;44782;0.000;0.000;2022-11-09T16:49:04;16.70;67.80
58993;DHT22;44782;0.000;0.000;2022-11-09T16:51:20;16.70;67.80
58993;DHT22;44782;0.000;0.000;2022-11-09T16:53:36;16.60;67.80
58993;DHT22;44782;0.000;0.000;2022-11-09T16:55:51;16.60;67.80
58993;DHT22;44782;0.000;0.000;2022-11-09T16:58:07;16.60;67.80
58993;DHT22;44782;0.000;0.000;2022-11-09T17:00:23;16.60;67.80
58993;DHT22;44782;0.000;0.000;2022-11-09T17:02:38;16.60;67.80
58993;DHT22;44782;0.000;0.000;2022-11-09T17:04:54;16.60;67.80
58993;DHT22;44782;0.000;0.000;2022-11-09T17:07:10;16.60;67.80
58993;DHT22;44782;0.000;0.000;2022-11-09T17:09:25;16.60;67.80